sensor_id;sensor_type;location;lat;lon;timestamp;temperature;humidity
35591;DHT22;30355;50.556;10.012;2024-02-21T00:02:14;8.70;72.00
35591;DHT22;30355;50.556;10.012;2024-02-21T00:12:16;8.70;72.10
35591;DHT22;30355;50.556;10.012;2024-02-21T00:22:19;8.70;71.90
35591;DHT22;30355;50.556;10.012;2024-02-21T00:32:21;8.70;72.10
35591;DHT22;30355;50.556;10.012;2024-02-21T00:42:23;8.70;72.10
35591;DHT22;30355;50.556;10.012;2024-02-21T00:52:25;8.70;72.20
35591;DHT22;30355;50.556;10.012;2024-02-21T01:02:27;8.60;72.10
35591;DHT22;30355;50.556;10.012;2024-02-21T01:12:29;8.60;72.10
35591;DHT22;30355;50.556;10.012;2024-02-21T01:22:31;8.60;72.20
35591;DHT22;30355;50.556;10.012;2024-02-21T01:32:33;8.60;72.40
35591;DHT22;30355;50.556;10.012;2024-02-21T01:42:39;8.60;72.30
35591;DHT22;30355;50.556;10.012;2024-02-21T01:52:43;8.60;72.40
35591;DHT22;30355;50.556;10.012;2024-02-21T02:02:48;8.50;72.30
35591;DHT22;30355;50.556;10.012;2024-02-21T02:12:50;8.50;72.40
35591;DHT22;30355;50.556;10.012;2024-02-21T02:22:52;8.50;72.50
35591;DHT22;30355;50.556;10.012;2024-02-21T02:32:54;8.50;72.60
35591;DHT22;30355;50.556;10.012;2024-02-21T02:42:56;8.50;72.70
35591;DHT22;30355;50.556;10.012;2024-02-21T02:52:58;8.40;72.90
35591;DHT22;30355;50.556;10.012;2024-02-21T03:03:01;8.30;73.10
35591;DHT22;30355;50.556;10.012;2024-02-21T03:13:05;8.30;73.40
35591;DHT22;30355;50.556;10.012;2024-02-21T03:23:07;8.30;73.50
35591;DHT22;30355;50.556;10.012;2024-02-21T03:33:09;8.30;73.60
35591;DHT22;30355;50.556;10.012;2024-02-21T03:43:11;8.20;73.50
35591;DHT22;30355;50.556;10.012;2024-02-21T03:53:13;8.30;73.60
35591;DHT22;30355;50.556;10.012;2024-02-21T04:03:15;8.20;73.70
35591;DHT22;30355;50.556;10.012;2024-02-21T04:13:17;8.20;73.70
35591;DHT22;30355;50.556;10.012;2024-02-21T04:23:19;8.20;73.90
35591;DHT22;30355;50.556;10.012;2024-02-21T04:33:21;8.20;74.10
35591;DHT22;30355;50.556;10.012;2024-02-21T04:43:25;8.20;74.10
35591;DHT22;30355;50.556;10.012;2024-02-21T04:53:27;8.20;74.00
35591;DHT22;30355;50.556;10.012;2024-02-21T05:03:29;8.30;73.90
35591;DHT22;30355;50.556;10.012;2024-02-21T05:13:31;8.30;73.90
35591;DHT22;30355;50.556;10.012;2024-02-21T05:23:33;8.30;74.00
35591;DHT22;30355;50.556;10.012;2024-02-21T05:33:35;8.20;74.10
35591;DHT22;30355;50.556;10.012;2024-02-21T05:43:37;8.20;74.10
35591;DHT22;30355;50.556;10.012;2024-02-21T05:53:40;8.20;74.20
35591;DHT22;30355;50.556;10.012;2024-02-21T06:03:42;8.20;74.30
35591;DHT22;30355;50.556;10.012;2024-02-21T06:13:44;8.10;74.40
35591;DHT22;30355;50.556;10.012;2024-02-21T06:23:46;8.00;74.50
35591;DHT22;30355;50.556;10.012;2024-02-21T06:33:48;8.10;74.50
35591;DHT22;30355;50.556;10.012;2024-02-21T06:43:51;8.00;74.60
35591;DHT22;30355;50.556;10.012;2024-02-21T06:53:53;8.00;74.70
35591;DHT22;30355;50.556;10.012;2024-02-21T07:03:56;8.00;75.00
35591;DHT22;30355;50.556;10.012;2024-02-21T07:13:58;8.00;75.10
35591;DHT22;30355;50.556;10.012;2024-02-21T07:24:00;8.00;75.20
35591;DHT22;30355;50.556;10.012;2024-02-21T07:34:02;8.00;75.30
35591;DHT22;30355;50.556;10.012;2024-02-21T07:44:04;8.10;75.40
35591;DHT22;30355;50.556;10.012;2024-02-21T07:54:07;8.10;76.00
35591;DHT22;30355;50.556;10.012;2024-02-21T08:04:12;8.00;75.30
35591;DHT22;30355;50.556;10.012;2024-02-21T08:14:14;8.00;75.40
35591;DHT22;30355;50.556;10.012;2024-02-21T08:24:21;8.10;75.10
35591;DHT22;30355;50.556;10.012;2024-02-21T08:34:24;8.10;74.90
35591;DHT22;30355;50.556;10.012;2024-02-21T08:44:28;8.00;74.70
35591;DHT22;30355;50.556;10.012;2024-02-21T08:54:30;8.00;74.40
35591;DHT22;30355;50.556;10.012;2024-02-21T09:04:34;8.00;74.20
35591;DHT22;30355;50.556;10.012;2024-02-21T09:14:37;8.00;74.00
35591;DHT22;30355;50.556;10.012;2024-02-21T09:24:42;8.10;74.20
35591;DHT22;30355;50.556;10.012;2024-02-21T09:34:44;8.30;74.80
35591;DHT22;30355;50.556;10.012;2024-02-21T09:44:47;8.50;73.40
35591;DHT22;30355;50.556;10.012;2024-02-21T09:54:50;8.60;72.40
35591;DHT22;30355;50.556;10.012;2024-02-21T10:04:54;8.60;72.60
35591;DHT22;30355;50.556;10.012;2024-02-21T10:15:03;8.70;72.30
35591;DHT22;30355;50.556;10.012;2024-02-21T10:25:07;8.80;71.90
35591;DHT22;30355;50.556;10.012;2024-02-21T10:35:13;9.00;72.20
35591;DHT22;30355;50.556;10.012;2024-02-21T10:45:16;9.20;72.10
35591;DHT22;30355;50.556;10.012;2024-02-21T10:55:37;9.40;71.70
35591;DHT22;30355;50.556;10.012;2024-02-21T11:05:42;9.60;71.30
35591;DHT22;30355;50.556;10.012;2024-02-21T11:15:47;9.90;71.40
35591;DHT22;30355;50.556;10.012;2024-02-21T11:25:49;10.10;70.60
35591;DHT22;30355;50.556;10.012;2024-02-21T11:35:51;10.30;70.30
35591;DHT22;30355;50.556;10.012;2024-02-21T11:46:01;10.40;70.10
35591;DHT22;30355;50.556;10.012;2024-02-21T11:56:05;10.70;68.90
35591;DHT22;30355;50.556;10.012;2024-02-21T12:06:07;10.80;69.40
35591;DHT22;30355;50.556;10.012;2024-02-21T12:16:10;10.90;67.40
35591;DHT22;30355;50.556;10.012;2024-02-21T12:26:12;10.90;67.40
35591;DHT22;30355;50.556;10.012;2024-02-21T12:36:14;11.00;66.70
35591;DHT22;30355;50.556;10.012;2024-02-21T12:46:16;11.10;66.70
35591;DHT22;30355;50.556;10.012;2024-02-21T12:56:18;11.20;66.70
35591;DHT22;30355;50.556;10.012;2024-02-21T13:06:21;11.20;66.20
35591;DHT22;30355;50.556;10.012;2024-02-21T13:16:23;11.30;66.20
35591;DHT22;30355;50.556;10.012;2024-02-21T13:26:25;11.40;66.30
35591;DHT22;30355;50.556;10.012;2024-02-21T13:36:27;11.50;66.20
35591;DHT22;30355;50.556;10.012;2024-02-21T13:46:29;11.60;65.90
35591;DHT22;30355;50.556;10.012;2024-02-21T13:56:32;11.60;65.70
35591;DHT22;30355;50.556;10.012;2024-02-21T14:06:34;11.60;64.70
35591;DHT22;30355;50.556;10.012;2024-02-21T14:16:37;11.50;65.00
35591;DHT22;30355;50.556;10.012;2024-02-21T14:26:39;11.50;65.40
35591;DHT22;30355;50.556;10.012;2024-02-21T14:36:43;11.60;64.80
35591;DHT22;30355;50.556;10.012;2024-02-21T14:46:45;11.60;64.80
35591;DHT22;30355;50.556;10.012;2024-02-21T14:56:47;11.70;64.60
35591;DHT22;30355;50.556;10.012;2024-02-21T15:06:49;11.70;64.20
35591;DHT22;30355;50.556;10.012;2024-02-21T15:16:51;11.70;63.60
35591;DHT22;30355;50.556;10.012;2024-02-21T15:26:54;11.70;62.30
35591;DHT22;30355;50.556;10.012;2024-02-21T15:36:56;11.60;62.10
35591;DHT22;30355;50.556;10.012;2024-02-21T15:46:58;11.50;61.60
35591;DHT22;30355;50.556;10.012;2024-02-21T15:57:01;11.40;60.30
35591;DHT22;30355;50.556;10.012;2024-02-21T16:07:07;11.40;60.70
35591;DHT22;30355;50.556;10.012;2024-02-21T16:17:09;11.30;60.90
35591;DHT22;30355;50.556;10.012;2024-02-21T16:27:12;11.30;60.40
35591;DHT22;30355;50.556;10.012;2024-02-21T16:37:14;11.20;61.00
35591;DHT22;30355;50.556;10.012;2024-02-21T16:47:16;11.20;61.00
35591;DHT22;30355;50.556;10.012;2024-02-21T16:57:18;11.20;60.50
35591;DHT22;30355;50.556;10.012;2024-02-21T17:07:21;11.10;60.80
35591;DHT22;30355;50.556;10.012;2024-02-21T17:17:23;11.00;61.50
35591;DHT22;30355;50.556;10.012;2024-02-21T17:27:26;11.00;62.00
35591;DHT22;30355;50.556;10.012;2024-02-21T17:37:27;10.90;61.80
35591;DHT22;30355;50.556;10.012;2024-02-21T17:47:30;10.80;61.90
35591;DHT22;30355;50.556;10.012;2024-02-21T17:57:32;10.70;62.10
35591;DHT22;30355;50.556;10.012;2024-02-21T18:07:34;10.60;62.20
35591;DHT22;30355;50.556;10.012;2024-02-21T18:17:38;10.50;62.40
35591;DHT22;30355;50.556;10.012;2024-02-21T18:27:42;10.50;62.30
35591;DHT22;30355;50.556;10.012;2024-02-21T18:37:45;10.40;62.00
35591;DHT22;30355;50.556;10.012;2024-02-21T18:47:47;10.40;61.50
35591;DHT22;30355;50.556;10.012;2024-02-21T18:57:49;10.40;61.40
35591;DHT22;30355;50.556;10.012;2024-02-21T19:07:51;10.30;60.80
35591;DHT22;30355;50.556;10.012;2024-02-21T19:17:53;10.30;60.50
35591;DHT22;30355;50.556;10.012;2024-02-21T19:27:56;10.30;60.40
35591;DHT22;30355;50.556;10.012;2024-02-21T19:37:58;10.20;60.20
35591;DHT22;30355;50.556;10.012;2024-02-21T19:48:07;10.20;59.80
35591;DHT22;30355;50.556;10.012;2024-02-21T19:58:09;10.30;59.90
35591;DHT22;30355;50.556;10.012;2024-02-21T20:08:11;10.30;60.00
35591;DHT22;30355;50.556;10.012;2024-02-21T20:18:14;10.40;60.10
35591;DHT22;30355;50.556;10.012;2024-02-21T20:28:16;10.40;60.20
35591;DHT22;30355;50.556;10.012;2024-02-21T20:38:19;10.50;59.80
35591;DHT22;30355;50.556;10.012;2024-02-21T20:48:21;10.60;59.20
35591;DHT22;30355;50.556;10.012;2024-02-21T20:58:23;10.60;59.00
35591;DHT22;30355;50.556;10.012;2024-02-21T21:08:26;10.70;58.70
35591;DHT22;30355;50.556;10.012;2024-02-21T21:18:29;10.70;57.80
35591;DHT22;30355;50.556;10.012;2024-02-21T21:28:34;10.80;58.20
35591;DHT22;30355;50.556;10.012;2024-02-21T21:38:36;10.80;58.20
35591;DHT22;30355;50.556;10.012;2024-02-21T21:48:38;10.70;59.10
35591;DHT22;30355;50.556;10.012;2024-02-21T21:58:40;10.50;59.40
35591;DHT22;30355;50.556;10.012;2024-02-21T22:08:42;10.40;60.20
35591;DHT22;30355;50.556;10.012;2024-02-21T22:18:49;10.10;60.90
35591;DHT22;30355;50.556;10.012;2024-02-21T22:28:51;10.00;61.70
35591;DHT22;30355;50.556;10.012;2024-02-21T22:38:57;9.80;62.50
35591;DHT22;30355;50.556;10.012;2024-02-21T22:48:59;9.70;63.30
35591;DHT22;30355;50.556;10.012;2024-02-21T22:59:01;9.50;64.20
35591;DHT22;30355;50.556;10.012;2024-02-21T23:09:03;9.30;65.30
35591;DHT22;30355;50.556;10.012;2024-02-21T23:19:06;9.30;66.40
35591;DHT22;30355;50.556;10.012;2024-02-21T23:29:08;9.20;67.10
35591;DHT22;30355;50.556;10.012;2024-02-21T23:39:10;9.20;67.40
35591;DHT22;30355;50.556;10.012;2024-02-21T23:49:12;9.20;68.40
35591;DHT22;30355;50.556;10.012;2024-02-21T23:59:14;9.30;68.60
